Time;durP1;ratioP1;P1;durP2;ratioP2;P2;SDS_P1;SDS_P2;PMS_P1;PMS_P2;Temp;Humidity;BMP_temperature;BMP_pressure;BME280_temperature;BME280_humidity;BME280_pressure;Samples;Min_cycle;Max_cycle;Signal;HPM_P1;HPM_P2
2021/12/30 00:01:23;;;;;;;19.17;12.70;;;;;;;;;;5139657;27;20224;-75
2021/12/30 00:03:52;;;;;;;16.60;13.53;;;;;;;;;;5139523;27;20204;-75
2021/12/30 00:06:23;;;;;;;22.83;15.57;;;;;;;;;;5139431;27;20720;-75
2021/12/30 00:08:51;;;;;;;20.17;14.17;;;;;;;;;;5139269;27;20206;-75
2021/12/30 00:11:19;;;;;;;18.93;14.97;;;;;;;;;;5137311;27;20202;-75
2021/12/30 00:13:47;;;;;;;19.70;14.83;;;;;;;;;;5138463;27;20204;-75
2021/12/30 00:16:16;;;;;;;17.20;13.23;;;;;;;;;;5138941;27;20586;-75
2021/12/30 00:18:45;;;;;;;20.03;13.07;;;;;;;;;;5138995;27;20286;-75
2021/12/30 00:21:14;;;;;;;17.57;13.53;;;;;;;;;;5138834;27;20586;-75
2021/12/30 00:23:42;;;;;;;20.17;15.10;;;;;;;;;;5139269;27;20283;-74
2021/12/30 00:26:10;;;;;;;18.30;14.53;;;;;;;;;;5135205;27;20220;-75
2021/12/30 00:28:39;;;;;;;20.60;13.60;;;;;;;;;;5137033;27;20283;-75
2021/12/30 00:31:07;;;;;;;18.00;13.93;;;;;;;;;;5138643;27;20750;-74
2021/12/30 00:33:35;;;;;;;17.53;12.90;;;;;;;;;;5138975;27;20204;-75
2021/12/30 00:36:03;;;;;;;19.10;13.93;;;;;;;;;;5139192;27;20329;-75
2021/12/30 00:38:33;;;;;;;18.70;13.43;;;;;;;;;;5139250;27;20218;-75
2021/12/30 00:41:01;;;;;;;16.80;13.60;;;;;;;;;;5137965;27;20708;-74
2021/12/30 00:43:29;;;;;;;18.47;13.63;;;;;;;;;;5138583;27;20235;-74
2021/12/30 00:45:57;;;;;;;20.77;13.50;;;;;;;;;;5124651;27;20219;-74
2021/12/30 00:48:25;;;;;;;16.90;12.77;;;;;;;;;;5138864;27;20240;-74
2021/12/30 00:50:53;;;;;;;17.13;12.40;;;;;;;;;;5138690;27;20200;-74
2021/12/30 00:53:21;;;;;;;18.07;13.53;;;;;;;;;;5138806;28;20674;-74
2021/12/30 00:55:50;;;;;;;19.57;14.07;;;;;;;;;;5134905;28;20604;-75
2021/12/30 00:58:18;;;;;;;22.60;14.97;;;;;;;;;;5137579;28;20206;-74
2021/12/30 01:00:47;;;;;;;17.20;13.97;;;;;;;;;;5133271;28;20205;-75
2021/12/30 01:03:16;;;;;;;18.63;13.90;;;;;;;;;;5130706;28;20205;-74
2021/12/30 01:05:45;;;;;;;18.70;13.80;;;;;;;;;;5138710;28;20204;-74
2021/12/30 01:08:13;;;;;;;17.87;13.40;;;;;;;;;;5138560;28;20212;-75
2021/12/30 01:10:42;;;;;;;19.57;13.10;;;;;;;;;;5137620;28;20213;-74
2021/12/30 01:13:17;;;;;;;17.00;12.70;;;;;;;;;;5138339;28;20200;-74
2021/12/30 01:15:49;;;;;;;15.67;12.53;;;;;;;;;;5137267;28;20199;-74
2021/12/30 01:18:28;;;;;;;17.90;13.20;;;;;;;;;;5138304;28;20678;-75
2021/12/30 01:20:57;;;;;;;19.10;12.70;;;;;;;;;;5138500;28;20204;-74
2021/12/30 01:23:25;;;;;;;17.27;12.47;;;;;;;;;;5136804;28;20747;-74
2021/12/30 01:25:53;;;;;;;15.73;12.50;;;;;;;;;;5129449;28;20223;-74
2021/12/30 01:28:23;;;;;;;14.40;12.13;;;;;;;;;;5134476;28;20647;-74
2021/12/30 01:30:51;;;;;;;17.73;11.77;;;;;;;;;;5138383;28;20200;-74
2021/12/30 01:33:19;;;;;;;15.87;11.97;;;;;;;;;;5138289;28;20229;-75
2021/12/30 01:35:47;;;;;;;16.97;13.00;;;;;;;;;;5140784;27;20212;-74
2021/12/30 01:38:16;;;;;;;16.10;11.70;;;;;;;;;;5138179;28;20208;-74
2021/12/30 01:40:46;;;;;;;15.93;12.47;;;;;;;;;;5136284;27;20279;-74
2021/12/30 01:43:14;;;;;;;17.00;11.90;;;;;;;;;;5141328;27;20605;-75
2021/12/30 01:45:45;;;;;;;19.87;13.70;;;;;;;;;;5141343;27;20200;-75
2021/12/30 01:48:13;;;;;;;17.80;11.43;;;;;;;;;;5140232;27;20197;-74
2021/12/30 01:50:42;;;;;;;15.07;11.97;;;;;;;;;;5142297;27;20235;-75
2021/12/30 01:53:10;;;;;;;15.20;11.57;;;;;;;;;;5142100;27;20206;-74
2021/12/30 01:55:38;;;;;;;15.77;11.33;;;;;;;;;;5142603;27;20208;-75
2021/12/30 01:58:07;;;;;;;14.43;11.20;;;;;;;;;;5147056;27;20201;-75
2021/12/30 02:00:36;;;;;;;12.83;11.03;;;;;;;;;;5134680;27;20218;-75
2021/12/30 02:03:06;;;;;;;14.57;10.10;;;;;;;;;;5136674;27;20211;-74
2021/12/30 02:05:34;;;;;;;13.67;10.97;;;;;;;;;;5139572;27;20603;-74
2021/12/30 02:08:03;;;;;;;16.87;10.30;;;;;;;;;;5141616;27;20230;-75
2021/12/30 02:10:31;;;;;;;15.87;11.87;;;;;;;;;;5140905;27;20697;-74
2021/12/30 02:12:59;;;;;;;16.83;11.77;;;;;;;;;;5138459;27;20196;-75
2021/12/30 02:15:27;;;;;;;16.80;11.43;;;;;;;;;;5141709;27;20204;-74
2021/12/30 02:17:55;;;;;;;14.17;11.17;;;;;;;;;;5138083;27;20196;-74
2021/12/30 02:20:44;;;;;;;13.27;11.17;;;;;;;;;;5140475;27;20722;-74
2021/12/30 02:23:13;;;;;;;16.03;11.40;;;;;;;;;;5139899;27;20593;-74
2021/12/30 02:25:41;;;;;;;16.60;11.77;;;;;;;;;;5141107;27;20200;-74
2021/12/30 02:28:10;;;;;;;15.63;11.17;;;;;;;;;;5139805;27;20202;-74
2021/12/30 02:30:38;;;;;;;15.87;11.80;;;;;;;;;;5141657;27;20212;-75
2021/12/30 02:33:06;;;;;;;16.50;11.73;;;;;;;;;;5142130;27;20195;-74
2021/12/30 02:35:35;;;;;;;12.93;10.80;;;;;;;;;;5140180;27;20210;-74
2021/12/30 02:38:04;;;;;;;13.87;11.23;;;;;;;;;;5139725;27;20198;-74
2021/12/30 02:40:36;;;;;;;18.57;12.13;;;;;;;;;;5140357;27;20196;-74
2021/12/30 02:43:04;;;;;;;13.37;11.43;;;;;;;;;;5139897;27;20220;-74
2021/12/30 02:45:32;;;;;;;13.17;10.83;;;;;;;;;;5139314;27;20535;-74
2021/12/30 02:48:01;;;;;;;13.10;11.60;;;;;;;;;;5139561;27;20228;-74
2021/12/30 02:50:29;;;;;;;14.90;10.67;;;;;;;;;;5140488;27;20202;-74
2021/12/30 02:52:57;;;;;;;16.47;11.73;;;;;;;;;;5139217;27;20200;-74
2021/12/30 02:55:26;;;;;;;13.77;10.90;;;;;;;;;;5136434;27;20200;-74
2021/12/30 02:57:54;;;;;;;17.00;11.80;;;;;;;;;;5132891;27;20204;-75
2021/12/30 03:00:22;;;;;;;15.47;10.73;;;;;;;;;;5139638;27;20196;-74
2021/12/30 03:02:50;;;;;;;13.60;10.03;;;;;;;;;;5139614;27;20226;-74
2021/12/30 03:05:20;;;;;;;18.43;11.30;;;;;;;;;;5141501;27;20260;-74
2021/12/30 03:07:48;;;;;;;15.23;10.77;;;;;;;;;;5139098;27;20223;-74
2021/12/30 03:10:17;;;;;;;13.97;10.53;;;;;;;;;;5135992;27;20661;-75
2021/12/30 03:12:51;;;;;;;15.03;10.87;;;;;;;;;;5138730;27;20192;-74
2021/12/30 03:15:20;;;;;;;13.60;10.97;;;;;;;;;;5138448;27;20198;-74
2021/12/30 03:17:48;;;;;;;14.57;11.40;;;;;;;;;;5139932;27;20227;-74
2021/12/30 03:20:16;;;;;;;13.23;10.47;;;;;;;;;;5140116;27;20654;-74
2021/12/30 03:22:44;;;;;;;14.53;11.73;;;;;;;;;;5135366;27;20216;-74
2021/12/30 03:25:13;;;;;;;14.93;11.20;;;;;;;;;;5140823;27;20200;-74
2021/12/30 03:27:41;;;;;;;17.93;10.97;;;;;;;;;;5136612;27;20220;-74
2021/12/30 03:30:13;;;;;;;15.10;11.33;;;;;;;;;;5141438;27;20202;-75
2021/12/30 03:32:41;;;;;;;16.70;10.70;;;;;;;;;;5137499;27;20199;-74
2021/12/30 03:35:09;;;;;;;13.67;10.77;;;;;;;;;;5141046;27;20206;-74
2021/12/30 03:37:38;;;;;;;14.60;10.80;;;;;;;;;;5138465;27;20652;-74
2021/12/30 03:40:07;;;;;;;14.77;10.93;;;;;;;;;;5135775;27;20206;-74
2021/12/30 03:42:35;;;;;;;14.07;10.50;;;;;;;;;;5138824;27;20227;-74
2021/12/30 03:45:04;;;;;;;13.47;10.63;;;;;;;;;;5137384;27;20281;-74
2021/12/30 03:47:35;;;;;;;11.93;10.17;;;;;;;;;;5138644;27;20216;-74
2021/12/30 03:50:03;;;;;;;12.43;10.83;;;;;;;;;;5139296;27;20650;-74
2021/12/30 03:52:31;;;;;;;13.87;10.83;;;;;;;;;;5139072;27;20206;-74
2021/12/30 03:54:59;;;;;;;14.63;11.30;;;;;;;;;;5140081;27;20206;-75
2021/12/30 03:57:27;;;;;;;14.07;10.60;;;;;;;;;;5140436;27;20230;-75
2021/12/30 03:59:55;;;;;;;16.30;10.77;;;;;;;;;;5131470;27;20259;-75
2021/12/30 04:02:23;;;;;;;13.73;10.70;;;;;;;;;;5129809;27;20208;-75
2021/12/30 04:04:52;;;;;;;13.93;10.53;;;;;;;;;;5138816;27;20200;-75
2021/12/30 04:07:20;;;;;;;15.60;10.87;;;;;;;;;;5156726;27;20234;-75
2021/12/30 04:09:48;;;;;;;14.20;10.00;;;;;;;;;;5149842;27;20216;-75
2021/12/30 04:12:18;;;;;;;17.50;11.13;;;;;;;;;;5138780;27;20208;-75
2021/12/30 04:14:51;;;;;;;14.13;11.03;;;;;;;;;;5137709;27;20206;-76
2021/12/30 04:17:19;;;;;;;16.03;10.90;;;;;;;;;;5139005;27;20227;-75
2021/12/30 04:19:47;;;;;;;14.83;11.37;;;;;;;;;;5139376;27;20203;-75
2021/12/30 04:22:18;;;;;;;15.47;10.90;;;;;;;;;;5139203;27;20212;-75
2021/12/30 04:24:46;;;;;;;16.67;11.50;;;;;;;;;;5138299;27;20200;-75
2021/12/30 04:27:15;;;;;;;15.30;12.13;;;;;;;;;;5137089;27;20640;-74
2021/12/30 04:29:43;;;;;;;15.27;11.60;;;;;;;;;;5126836;27;20203;-75
2021/12/30 04:32:11;;;;;;;13.90;10.83;;;;;;;;;;5136656;27;20200;-75
2021/12/30 04:34:39;;;;;;;14.97;10.63;;;;;;;;;;5128743;27;20260;-75
2021/12/30 04:37:07;;;;;;;16.50;10.87;;;;;;;;;;5138835;27;20220;-75
2021/12/30 04:39:36;;;;;;;13.40;10.37;;;;;;;;;;5138074;27;20209;-75
2021/12/30 04:42:05;;;;;;;15.30;12.00;;;;;;;;;;5138419;27;20236;-75
2021/12/30 04:44:33;;;;;;;15.37;11.10;;;;;;;;;;5137917;27;20222;-75
2021/12/30 04:47:00;;;;;;;15.07;11.57;;;;;;;;;;5138617;27;20228;-76
2021/12/30 04:49:29;;;;;;;19.27;12.90;;;;;;;;;;5138171;27;20569;-75
2021/12/30 04:51:56;;;;;;;15.73;11.70;;;;;;;;;;5138766;27;20226;-75
2021/12/30 04:54:24;;;;;;;13.97;10.57;;;;;;;;;;5137236;27;20200;-75
2021/12/30 04:56:54;;;;;;;19.27;12.03;;;;;;;;;;5139211;27;20219;-75
2021/12/30 04:59:22;;;;;;;16.97;12.20;;;;;;;;;;5124504;28;20200;-75
2021/12/30 05:01:50;;;;;;;16.00;11.50;;;;;;;;;;5138745;28;20231;-75
2021/12/30 05:04:19;;;;;;;15.27;10.67;;;;;;;;;;5138462;28;20312;-75
2021/12/30 05:06:47;;;;;;;14.93;11.23;;;;;;;;;;5137698;27;20224;-75
2021/12/30 05:09:15;;;;;;;15.33;11.37;;;;;;;;;;5136394;28;20204;-77
2021/12/30 05:11:43;;;;;;;14.67;11.60;;;;;;;;;;5137280;27;20666;-78
2021/12/30 05:14:13;;;;;;;15.97;11.53;;;;;;;;;;5137693;28;20192;-77
2021/12/30 05:16:41;;;;;;;15.70;11.60;;;;;;;;;;5139992;27;20216;-77
2021/12/30 05:19:09;;;;;;;17.77;12.53;;;;;;;;;;5151406;27;20199;-77
2021/12/30 05:21:37;;;;;;;16.30;12.73;;;;;;;;;;5152197;27;20205;-77
2021/12/30 05:24:06;;;;;;;18.03;13.53;;;;;;;;;;5156058;27;20230;-77
2021/12/30 05:26:34;;;;;;;18.47;13.00;;;;;;;;;;5142713;27;20307;-77
2021/12/30 05:29:04;;;;;;;21.20;12.77;;;;;;;;;;5128435;27;20212;-77
2021/12/30 05:31:34;;;;;;;16.60;12.37;;;;;;;;;;5142878;27;20283;-78
2021/12/30 05:34:02;;;;;;;17.47;12.23;;;;;;;;;;5142087;27;20235;-77
2021/12/30 05:36:30;;;;;;;17.97;12.63;;;;;;;;;;5141181;27;20216;-78
2021/12/30 05:38:58;;;;;;;18.63;12.20;;;;;;;;;;5142467;27;20210;-77
2021/12/30 05:41:27;;;;;;;17.70;12.03;;;;;;;;;;5137024;27;20263;-77
2021/12/30 05:43:56;;;;;;;17.43;11.83;;;;;;;;;;5141373;27;20220;-77
2021/12/30 05:46:24;;;;;;;18.60;12.03;;;;;;;;;;5128018;27;20553;-77
2021/12/30 05:48:53;;;;;;;18.67;12.47;;;;;;;;;;5146764;27;20206;-78
2021/12/30 05:51:21;;;;;;;17.70;11.73;;;;;;;;;;5150022;27;20196;-77
2021/12/30 05:53:49;;;;;;;16.30;12.17;;;;;;;;;;5146887;27;20204;-77
2021/12/30 05:56:17;;;;;;;14.47;11.63;;;;;;;;;;5147505;27;20220;-77
2021/12/30 05:58:45;;;;;;;24.17;16.97;;;;;;;;;;5162691;27;20209;-77
2021/12/30 06:01:13;;;;;;;18.67;12.53;;;;;;;;;;5150319;27;20681;-77
2021/12/30 06:03:41;;;;;;;18.90;12.60;;;;;;;;;;5141566;27;20751;-77
2021/12/30 06:06:11;;;;;;;16.13;11.97;;;;;;;;;;5127341;27;20220;-77
2021/12/30 06:08:39;;;;;;;16.63;12.10;;;;;;;;;;5141961;27;20215;-78
2021/12/30 06:11:07;;;;;;;15.50;11.63;;;;;;;;;;5143261;27;20207;-76
2021/12/30 06:13:35;;;;;;;16.63;12.37;;;;;;;;;;5145714;27;20196;-77
2021/12/30 06:16:03;;;;;;;16.43;11.27;;;;;;;;;;5147642;27;20576;-77
2021/12/30 06:18:31;;;;;;;15.30;11.63;;;;;;;;;;5146080;27;20719;-77
2021/12/30 06:20:59;;;;;;;18.93;10.97;;;;;;;;;;5149504;27;20711;-78
2021/12/30 06:23:28;;;;;;;14.73;11.00;;;;;;;;;;5132303;27;20201;-78
2021/12/30 06:25:56;;;;;;;16.27;11.17;;;;;;;;;;5138720;27;20223;-78
2021/12/30 06:28:24;;;;;;;14.57;11.87;;;;;;;;;;5140701;27;20208;-77
2021/12/30 06:30:52;;;;;;;16.27;11.47;;;;;;;;;;5141382;27;20207;-77
2021/12/30 06:33:20;;;;;;;15.73;12.30;;;;;;;;;;5141456;27;20208;-77
2021/12/30 06:35:48;;;;;;;16.13;11.70;;;;;;;;;;5146534;27;20197;-78
2021/12/30 06:38:16;;;;;;;15.77;11.60;;;;;;;;;;5142369;27;20208;-78
2021/12/30 06:40:46;;;;;;;15.90;11.40;;;;;;;;;;5125078;27;20254;-78
2021/12/30 06:43:14;;;;;;;16.13;12.47;;;;;;;;;;5131703;27;20232;-77
2021/12/30 06:45:44;;;;;;;17.17;12.37;;;;;;;;;;5127512;27;20220;-77
2021/12/30 06:48:14;;;;;;;16.67;12.40;;;;;;;;;;5142617;27;20199;-78
2021/12/30 06:50:51;;;;;;;16.47;12.00;;;;;;;;;;5145651;27;20279;-77
2021/12/30 06:53:19;;;;;;;20.70;14.20;;;;;;;;;;5147674;27;20278;-77
2021/12/30 06:55:49;;;;;;;16.27;11.97;;;;;;;;;;5138745;27;20200;-76
2021/12/30 06:58:17;;;;;;;17.43;12.73;;;;;;;;;;5140875;27;20264;-76
2021/12/30 07:00:46;;;;;;;16.47;12.37;;;;;;;;;;5140060;27;20214;-75
2021/12/30 07:03:14;;;;;;;17.50;12.73;;;;;;;;;;5147084;27;20252;-75
2021/12/30 07:05:45;;;;;;;18.37;12.87;;;;;;;;;;5146779;27;20567;-75
2021/12/30 07:08:13;;;;;;;17.87;13.17;;;;;;;;;;5146748;27;20202;-76
2021/12/30 07:10:44;;;;;;;17.03;12.13;;;;;;;;;;5147268;27;20196;-75
2021/12/30 07:13:13;;;;;;;16.63;11.50;;;;;;;;;;5144211;27;20602;-75
2021/12/30 07:15:41;;;;;;;14.33;11.33;;;;;;;;;;5145834;27;20196;-76
2021/12/30 07:18:09;;;;;;;16.03;12.10;;;;;;;;;;5145809;27;20202;-76
2021/12/30 07:20:37;;;;;;;15.17;11.87;;;;;;;;;;5145212;27;20200;-75
2021/12/30 07:23:05;;;;;;;18.33;11.63;;;;;;;;;;5146898;27;20195;-77
2021/12/30 07:25:33;;;;;;;19.40;12.90;;;;;;;;;;5149163;27;20272;-77
2021/12/30 07:28:03;;;;;;;22.37;13.40;;;;;;;;;;5145830;27;20559;-77
2021/12/30 07:30:33;;;;;;;17.53;12.43;;;;;;;;;;5148412;27;20212;-77
2021/12/30 07:33:05;;;;;;;18.13;12.53;;;;;;;;;;5145590;27;20558;-76
2021/12/30 07:35:34;;;;;;;21.57;13.73;;;;;;;;;;5145697;27;20192;-76
2021/12/30 07:38:03;;;;;;;14.10;11.67;;;;;;;;;;5146972;27;20192;-76
2021/12/30 07:40:31;;;;;;;22.77;13.50;;;;;;;;;;5149373;27;20208;-76
2021/12/30 07:42:59;;;;;;;18.67;13.30;;;;;;;;;;5146463;27;20287;-76
2021/12/30 07:45:27;;;;;;;18.20;13.73;;;;;;;;;;5147793;27;20228;-77
2021/12/30 07:47:57;;;;;;;18.27;12.47;;;;;;;;;;5149020;27;20245;-76
2021/12/30 07:50:25;;;;;;;16.27;13.57;;;;;;;;;;5146181;27;20199;-77
2021/12/30 07:52:54;;;;;;;19.37;12.97;;;;;;;;;;5146447;27;20199;-77
2021/12/30 07:55:22;;;;;;;18.97;12.57;;;;;;;;;;5147174;27;20198;-76
2021/12/30 07:57:51;;;;;;;20.73;13.03;;;;;;;;;;5149349;27;20706;-76
2021/12/30 08:00:20;;;;;;;19.00;12.87;;;;;;;;;;5145304;27;20234;-77
2021/12/30 08:02:48;;;;;;;17.07;12.70;;;;;;;;;;5149745;27;20554;-76
2021/12/30 08:05:18;;;;;;;21.80;13.03;;;;;;;;;;5146165;27;20213;-76
2021/12/30 08:07:47;;;;;;;16.40;12.97;;;;;;;;;;5131655;27;20578;-77
2021/12/30 08:10:15;;;;;;;21.43;13.40;;;;;;;;;;5138281;27;20206;-76
2021/12/30 08:12:44;;;;;;;21.67;13.97;;;;;;;;;;5138401;27;20195;-76
2021/12/30 08:15:13;;;;;;;23.50;14.37;;;;;;;;;;5134891;27;20196;-76
2021/12/30 08:17:41;;;;;;;21.57;15.10;;;;;;;;;;5124573;27;20295;-77
2021/12/30 08:20:10;;;;;;;23.20;15.33;;;;;;;;;;5128256;27;20203;-78
2021/12/30 08:22:39;;;;;;;22.60;14.47;;;;;;;;;;5129225;27;20261;-77
2021/12/30 08:25:08;;;;;;;21.03;13.57;;;;;;;;;;5127988;27;20683;-77
2021/12/30 08:27:36;;;;;;;23.67;15.33;;;;;;;;;;5130837;27;20269;-77
2021/12/30 08:30:06;;;;;;;23.30;14.53;;;;;;;;;;5130026;27;20207;-77
2021/12/30 08:32:34;;;;;;;20.70;13.87;;;;;;;;;;5129324;27;20283;-77
2021/12/30 08:35:02;;;;;;;20.47;13.07;;;;;;;;;;5128598;27;20196;-77
2021/12/30 08:37:30;;;;;;;19.20;12.67;;;;;;;;;;5129924;27;20224;-77
2021/12/30 08:40:01;;;;;;;23.10;14.90;;;;;;;;;;5129205;27;20202;-77
2021/12/30 08:42:29;;;;;;;23.17;13.83;;;;;;;;;;5127986;27;20231;-77
2021/12/30 08:44:59;;;;;;;23.20;13.00;;;;;;;;;;5127399;27;20200;-76
2021/12/30 08:47:28;;;;;;;18.47;12.10;;;;;;;;;;5130409;27;20251;-78
2021/12/30 08:49:56;;;;;;;19.87;12.10;;;;;;;;;;5127754;27;20203;-77
2021/12/30 08:52:25;;;;;;;22.23;12.57;;;;;;;;;;5128497;27;20209;-77
2021/12/30 08:54:54;;;;;;;20.33;11.87;;;;;;;;;;5129451;27;20206;-75
2021/12/30 08:57:24;;;;;;;20.23;11.40;;;;;;;;;;5129225;28;20306;-76
2021/12/30 08:59:52;;;;;;;18.07;11.67;;;;;;;;;;5134520;27;20206;-77
2021/12/30 09:02:20;;;;;;;19.73;12.33;;;;;;;;;;5129449;27;20210;-76
2021/12/30 09:04:49;;;;;;;22.53;11.77;;;;;;;;;;5132704;28;20268;-77
2021/12/30 09:07:18;;;;;;;16.57;10.37;;;;;;;;;;5136796;28;20717;-77
2021/12/30 09:09:46;;;;;;;18.87;10.87;;;;;;;;;;5145741;27;20203;-76
2021/12/30 09:12:17;;;;;;;21.70;12.90;;;;;;;;;;5138714;27;20207;-76
2021/12/30 09:14:53;;;;;;;28.20;14.47;;;;;;;;;;5132603;28;20230;-76
2021/12/30 09:17:21;;;;;;;26.90;14.80;;;;;;;;;;5138918;27;20241;-77
2021/12/30 09:19:49;;;;;;;24.33;13.70;;;;;;;;;;5138195;27;20207;-76
2021/12/30 09:22:17;;;;;;;25.67;13.23;;;;;;;;;;5134101;28;20212;-75
2021/12/30 09:24:45;;;;;;;27.97;13.67;;;;;;;;;;5136939;28;20197;-76
2021/12/30 09:27:13;;;;;;;25.70;14.20;;;;;;;;;;5141920;27;20228;-76
2021/12/30 09:29:41;;;;;;;27.23;15.33;;;;;;;;;;5142551;27;20207;-76
2021/12/30 09:32:11;;;;;;;25.40;14.40;;;;;;;;;;5143471;27;20294;-76
2021/12/30 09:34:39;;;;;;;26.17;13.87;;;;;;;;;;5138496;27;20214;-76
2021/12/30 09:37:09;;;;;;;30.73;16.10;;;;;;;;;;5138397;27;20725;-76
2021/12/30 09:39:38;;;;;;;27.60;16.40;;;;;;;;;;5142704;27;20196;-76
2021/12/30 09:42:06;;;;;;;27.60;14.57;;;;;;;;;;5138062;27;20235;-76
2021/12/30 09:44:34;;;;;;;24.40;13.53;;;;;;;;;;5138058;27;20292;-76
2021/12/30 09:47:02;;;;;;;26.07;13.13;;;;;;;;;;5126313;27;20596;-77
2021/12/30 09:49:35;;;;;;;28.43;15.77;;;;;;;;;;5138529;27;20283;-76
2021/12/30 09:52:04;;;;;;;29.60;14.87;;;;;;;;;;5136916;27;20196;-76
2021/12/30 09:54:32;;;;;;;34.13;16.77;;;;;;;;;;5138257;27;20200;-77
2021/12/30 09:57:00;;;;;;;32.13;15.63;;;;;;;;;;5141154;27;20219;-77
2021/12/30 09:59:30;;;;;;;34.80;15.13;;;;;;;;;;5137653;28;20200;-76
2021/12/30 10:01:58;;;;;;;28.73;14.83;;;;;;;;;;5143977;27;20753;-76
2021/12/30 10:04:30;;;;;;;32.93;16.13;;;;;;;;;;5142042;27;20200;-76
2021/12/30 10:07:01;;;;;;;31.07;16.13;;;;;;;;;;5142248;27;20235;-76
2021/12/30 10:09:46;;;;;;;34.37;16.80;;;;;;;;;;5141607;27;20204;-76
2021/12/30 10:12:16;;;;;;;25.87;14.20;;;;;;;;;;5138316;27;20223;-76
2021/12/30 10:14:44;;;;;;;28.60;14.67;;;;;;;;;;5140434;27;20196;-76
2021/12/30 10:17:21;;;;;;;29.67;15.70;;;;;;;;;;5141299;27;20283;-77
2021/12/30 10:19:53;;;;;;;27.77;13.97;;;;;;;;;;5136760;27;20204;-77
2021/12/30 10:22:24;;;;;;;32.20;14.63;;;;;;;;;;5137838;27;20302;-76
2021/12/30 10:24:53;;;;;;;29.87;14.50;;;;;;;;;;5143255;27;20287;-76
2021/12/30 10:27:24;;;;;;;26.13;13.60;;;;;;;;;;5138624;27;20655;-76
2021/12/30 10:29:52;;;;;;;27.57;14.87;;;;;;;;;;5142288;27;20607;-77
2021/12/30 10:32:22;;;;;;;23.13;14.07;;;;;;;;;;5141069;27;20232;-76
2021/12/30 10:35:07;;;;;;;27.53;14.57;;;;;;;;;;5143592;27;20245;-77
2021/12/30 10:37:37;;;;;;;24.90;13.47;;;;;;;;;;5139668;27;20270;-77
2021/12/30 10:40:06;;;;;;;26.50;13.10;;;;;;;;;;5141125;27;20216;-77
2021/12/30 10:42:34;;;;;;;19.33;13.43;;;;;;;;;;5142352;27;20231;-77
2021/12/30 10:45:04;;;;;;;85.10;59.07;;;;;;;;;;5149075;27;20203;-75
2021/12/30 10:47:33;;;;;;;38.33;26.73;;;;;;;;;;5140206;27;20631;-76
2021/12/30 10:50:04;;;;;;;29.67;18.50;;;;;;;;;;5143071;27;20200;-79
2021/12/30 10:52:32;;;;;;;24.93;13.77;;;;;;;;;;5147776;27;20212;-77
2021/12/30 10:55:10;;;;;;;26.43;15.43;;;;;;;;;;5139566;27;20283;-78
2021/12/30 10:57:38;;;;;;;22.80;14.03;;;;;;;;;;5147352;27;20231;-77
2021/12/30 11:00:08;;;;;;;24.27;13.93;;;;;;;;;;5135008;27;20208;-77
2021/12/30 11:02:36;;;;;;;25.27;14.30;;;;;;;;;;5150132;27;20259;-77
2021/12/30 11:05:10;;;;;;;21.60;12.90;;;;;;;;;;5143639;27;20195;-77
2021/12/30 11:07:43;;;;;;;22.97;13.77;;;;;;;;;;5144399;27;20239;-76
2021/12/30 11:10:12;;;;;;;23.60;13.50;;;;;;;;;;5140255;27;20200;-77
2021/12/30 11:12:42;;;;;;;17.63;12.37;;;;;;;;;;5144782;27;20195;-76
2021/12/30 11:15:18;;;;;;;20.73;12.03;;;;;;;;;;5142590;27;20208;-77
2021/12/30 11:17:46;;;;;;;20.77;12.20;;;;;;;;;;5141059;27;20259;-77
2021/12/30 11:20:16;;;;;;;20.10;11.73;;;;;;;;;;5141504;27;20578;-77
2021/12/30 11:22:44;;;;;;;20.87;12.30;;;;;;;;;;5141944;27;20583;-77
2021/12/30 11:25:17;;;;;;;18.67;11.30;;;;;;;;;;5141901;27;20203;-77
2021/12/30 11:27:46;;;;;;;18.90;11.67;;;;;;;;;;5139752;27;20256;-77
2021/12/30 11:30:15;;;;;;;20.93;11.77;;;;;;;;;;5146842;27;20671;-77
2021/12/30 11:32:47;;;;;;;18.17;11.60;;;;;;;;;;5141772;27;20206;-76
2021/12/30 11:35:17;;;;;;;20.43;13.30;;;;;;;;;;5149389;27;20734;-76
2021/12/30 11:37:46;;;;;;;21.27;12.67;;;;;;;;;;5141214;27;20279;-76
2021/12/30 11:40:15;;;;;;;18.23;11.70;;;;;;;;;;5142343;27;20580;-76
2021/12/30 11:42:45;;;;;;;16.60;10.73;;;;;;;;;;5135462;27;20247;-76
2021/12/30 11:45:23;;;;;;;17.90;10.80;;;;;;;;;;5142505;27;20212;-76
2021/12/30 11:47:51;;;;;;;18.80;13.03;;;;;;;;;;5140868;27;20584;-75
2021/12/30 11:50:29;;;;;;;16.63;11.20;;;;;;;;;;5141358;27;20204;-76
2021/12/30 11:52:58;;;;;;;16.97;10.53;;;;;;;;;;5146247;27;20290;-75
2021/12/30 11:55:43;;;;;;;18.00;11.53;;;;;;;;;;5140546;27;20203;-76
2021/12/30 11:58:29;;;;;;;15.73;10.17;;;;;;;;;;5136925;27;20275;-76
2021/12/30 12:00:59;;;;;;;15.87;9.87;;;;;;;;;;5141044;27;20210;-76
2021/12/30 12:03:28;;;;;;;14.07;9.57;;;;;;;;;;5138591;27;20203;-76
2021/12/30 12:05:56;;;;;;;15.70;9.53;;;;;;;;;;5135419;27;20224;-75
2021/12/30 12:08:28;;;;;;;15.50;9.07;;;;;;;;;;5140031;27;20716;-76
2021/12/30 12:11:11;;;;;;;12.57;9.07;;;;;;;;;;5135109;27;20214;-76
2021/12/30 12:13:39;;;;;;;14.30;9.07;;;;;;;;;;5129011;27;20583;-76
2021/12/30 12:16:08;;;;;;;16.10;9.03;;;;;;;;;;5138674;27;20234;-76
2021/12/30 12:18:37;;;;;;;12.70;8.37;;;;;;;;;;5137543;27;20238;-75
2021/12/30 12:21:06;;;;;;;13.70;9.60;;;;;;;;;;5138613;27;20295;-75
2021/12/30 12:23:35;;;;;;;13.57;9.00;;;;;;;;;;5139958;27;20200;-77
2021/12/30 12:26:07;;;;;;;13.20;8.33;;;;;;;;;;5137640;27;20220;-75
2021/12/30 12:28:35;;;;;;;14.73;7.87;;;;;;;;;;5140751;27;20227;-76
2021/12/30 12:31:06;;;;;;;12.93;8.07;;;;;;;;;;5139844;27;20727;-75
2021/12/30 12:33:37;;;;;;;11.70;8.17;;;;;;;;;;5138362;27;20200;-76
2021/12/30 12:36:10;;;;;;;12.90;8.70;;;;;;;;;;5139286;27;20303;-75
2021/12/30 12:38:39;;;;;;;13.77;7.80;;;;;;;;;;5136902;27;20196;-75
2021/12/30 12:41:21;;;;;;;11.43;7.70;;;;;;;;;;5139024;27;20203;-73
2021/12/30 12:43:55;;;;;;;12.33;6.57;;;;;;;;;;5137222;27;20210;-74
2021/12/30 12:46:38;;;;;;;11.83;8.17;;;;;;;;;;5137412;27;20282;-76
2021/12/30 12:49:08;;;;;;;8.20;6.20;;;;;;;;;;5141134;27;20272;-75
2021/12/30 12:51:36;;;;;;;8.23;6.73;;;;;;;;;;5139152;27;20193;-75
2021/12/30 12:54:06;;;;;;;11.17;4.97;;;;;;;;;;5142060;27;20196;-74
2021/12/30 12:56:35;;;;;;;4.00;3.20;;;;;;;;;;5145194;27;20215;-75
2021/12/30 12:59:05;;;;;;;4.50;3.20;;;;;;;;;;5143267;27;20194;-75
2021/12/30 13:01:33;;;;;;;4.67;3.70;;;;;;;;;;5142343;27;20202;-76
2021/12/30 13:04:03;;;;;;;4.93;4.23;;;;;;;;;;5140685;27;20196;-73
2021/12/30 13:06:34;;;;;;;8.57;4.07;;;;;;;;;;5132486;27;20703;-75
2021/12/30 13:09:06;;;;;;;6.70;4.50;;;;;;;;;;5135993;27;20224;-74
2021/12/30 13:11:35;;;;;;;6.17;3.57;;;;;;;;;;5142479;27;20222;-74
2021/12/30 13:14:04;;;;;;;5.83;4.23;;;;;;;;;;5131486;27;20311;-74
2021/12/30 13:16:33;;;;;;;5.63;3.90;;;;;;;;;;5132356;28;20224;-75
2021/12/30 13:19:06;;;;;;;7.73;3.87;;;;;;;;;;5132330;28;20203;-74
2021/12/30 13:21:49;;;;;;;6.40;3.60;;;;;;;;;;5134564;28;20291;-74
2021/12/30 13:24:37;;;;;;;4.63;3.10;;;;;;;;;;5133645;28;20208;-74
2021/12/30 13:27:06;;;;;;;6.03;3.87;;;;;;;;;;5129303;28;20581;-74
2021/12/30 13:29:34;;;;;;;5.60;3.13;;;;;;;;;;5135017;28;20216;-74
2021/12/30 13:32:04;;;;;;;6.23;3.27;;;;;;;;;;5131319;28;20196;-74
2021/12/30 13:34:32;;;;;;;3.03;2.63;;;;;;;;;;5132944;28;20208;-74
2021/12/30 13:37:15;;;;;;;3.43;2.87;;;;;;;;;;5135235;27;20211;-75
2021/12/30 13:39:43;;;;;;;4.53;3.30;;;;;;;;;;5140777;27;20196;-74
2021/12/30 13:42:12;;;;;;;3.07;2.77;;;;;;;;;;5145988;27;20310;-75
2021/12/30 13:44:41;;;;;;;3.87;3.43;;;;;;;;;;5142133;27;20239;-74
2021/12/30 13:47:16;;;;;;;5.53;4.07;;;;;;;;;;5142214;27;20241;-75
2021/12/30 13:49:44;;;;;;;4.70;2.73;;;;;;;;;;5134048;27;20292;-76
2021/12/30 13:52:14;;;;;;;2.63;2.13;;;;;;;;;;5134682;27;20227;-76
2021/12/30 13:54:42;;;;;;;2.93;1.97;;;;;;;;;;5141073;27;20203;-75
2021/12/30 13:57:10;;;;;;;4.03;2.73;;;;;;;;;;5141002;27;20226;-75
2021/12/30 13:59:44;;;;;;;2.40;1.93;;;;;;;;;;5144300;27;20204;-76
2021/12/30 14:02:12;;;;;;;2.20;1.90;;;;;;;;;;5142212;27;20212;-76
2021/12/30 14:04:41;;;;;;;2.00;1.87;;;;;;;;;;5141172;27;20211;-76
2021/12/30 14:07:09;;;;;;;2.30;2.03;;;;;;;;;;5143834;27;20701;-75
2021/12/30 14:09:38;;;;;;;2.87;2.30;;;;;;;;;;5136802;27;20219;-77
2021/12/30 14:12:11;;;;;;;2.87;1.90;;;;;;;;;;5133667;27;20224;-76
2021/12/30 14:14:39;;;;;;;2.37;1.67;;;;;;;;;;5141885;27;20205;-77
2021/12/30 14:17:11;;;;;;;5.47;2.03;;;;;;;;;;5142463;27;20222;-76
2021/12/30 14:19:40;;;;;;;1.80;1.70;;;;;;;;;;5147204;27;20199;-76
2021/12/30 14:22:09;;;;;;;2.23;1.60;;;;;;;;;;5146562;27;20202;-76
2021/12/30 14:24:40;;;;;;;1.70;1.60;;;;;;;;;;5140716;27;20231;-76
2021/12/30 14:27:13;;;;;;;3.13;1.90;;;;;;;;;;5148071;27;20306;-76
2021/12/30 14:29:41;;;;;;;2.53;2.27;;;;;;;;;;5144014;27;20321;-76
2021/12/30 14:32:11;;;;;;;2.17;2.03;;;;;;;;;;5149326;27;20286;-78
2021/12/30 14:34:40;;;;;;;3.00;1.93;;;;;;;;;;5137684;27;20573;-77